Time;durP1;ratioP1;P1;durP2;ratioP2;P2;SDS_P1;SDS_P2;PMS_P1;PMS_P2;Temp;Humidity;BMP_temperature;BMP_pressure;BME280_temperature;BME280_humidity;BME280_pressure;Samples;Min_cycle;Max_cycle;Signal;HPM_P1;HPM_P2
2023/01/02 00:00:48;;;;;;;16.70;7.13;;;;;;;;;;5068171;28;20175;-69
2023/01/02 00:03:14;;;;;;;17.57;5.63;;;;;;;;;;5067677;28;20186;-70
2023/01/02 00:05:40;;;;;;;12.23;5.30;;;;;;;;;;5069593;28;20178;-68
2023/01/02 00:08:06;;;;;;;12.73;6.33;;;;;;;;;;5067480;28;20182;-69
2023/01/02 00:10:32;;;;;;;11.23;6.40;;;;;;;;;;5068079;28;20257;-68
2023/01/02 00:12:58;;;;;;;12.90;6.63;;;;;;;;;;5067265;28;20198;-69
2023/01/02 00:15:24;;;;;;;15.07;6.00;;;;;;;;;;5067411;28;20224;-68
2023/01/02 00:17:50;;;;;;;13.43;6.80;;;;;;;;;;5067892;28;20223;-69
2023/01/02 00:20:16;;;;;;;16.80;8.00;;;;;;;;;;5064995;28;20182;-68
2023/01/02 00:22:42;;;;;;;18.23;8.73;;;;;;;;;;5066031;28;20198;-68
2023/01/02 00:25:08;;;;;;;20.10;8.97;;;;;;;;;;5067054;28;20230;-70
2023/01/02 00:27:34;;;;;;;20.03;8.53;;;;;;;;;;5066688;28;20181;-69
2023/01/02 00:29:59;;;;;;;16.37;8.27;;;;;;;;;;5063696;28;20183;-70
2023/01/02 00:32:25;;;;;;;20.80;8.63;;;;;;;;;;5066296;28;20210;-70
2023/01/02 00:34:51;;;;;;;16.27;8.83;;;;;;;;;;5064996;28;20637;-70
2023/01/02 00:37:17;;;;;;;19.47;7.43;;;;;;;;;;5064897;28;20235;-69
2023/01/02 00:39:43;;;;;;;12.93;7.33;;;;;;;;;;5065614;28;20178;-70
2023/01/02 00:42:09;;;;;;;12.70;6.33;;;;;;;;;;5064955;28;20680;-70
2023/01/02 00:44:35;;;;;;;15.33;6.27;;;;;;;;;;5065947;28;20254;-69
2023/01/02 00:47:01;;;;;;;15.83;6.60;;;;;;;;;;5064961;28;20186;-70
2023/01/02 00:49:27;;;;;;;16.27;6.63;;;;;;;;;;5065210;28;20175;-70
2023/01/02 00:51:53;;;;;;;12.17;6.10;;;;;;;;;;5064940;28;20214;-70
2023/01/02 00:54:19;;;;;;;17.03;7.20;;;;;;;;;;5064155;28;20175;-70
2023/01/02 00:56:45;;;;;;;15.50;7.20;;;;;;;;;;5063723;28;20181;-70
2023/01/02 00:59:11;;;;;;;14.47;6.70;;;;;;;;;;5062703;28;20178;-71
2023/01/02 01:01:37;;;;;;;14.47;6.80;;;;;;;;;;5064627;28;20240;-70
2023/01/02 01:04:03;;;;;;;15.07;6.73;;;;;;;;;;5063373;28;20178;-71
2023/01/02 01:06:29;;;;;;;11.43;5.70;;;;;;;;;;5063920;28;20174;-70
2023/01/02 01:08:55;;;;;;;13.20;5.30;;;;;;;;;;5064823;28;20183;-70
2023/01/02 01:11:21;;;;;;;13.83;5.33;;;;;;;;;;5065471;28;20215;-70
2023/01/02 01:13:47;;;;;;;10.33;4.80;;;;;;;;;;5063017;28;20228;-70
2023/01/02 01:16:17;;;;;;;14.60;5.33;;;;;;;;;;5062508;28;20553;-70
2023/01/02 01:18:43;;;;;;;13.83;5.23;;;;;;;;;;5063071;28;20174;-70
2023/01/02 01:21:14;;;;;;;9.17;4.10;;;;;;;;;;5062051;28;20206;-70
2023/01/02 01:23:40;;;;;;;16.10;4.93;;;;;;;;;;5062079;28;20182;-70
2023/01/02 01:26:07;;;;;;;10.07;4.57;;;;;;;;;;5063106;28;20233;-70
2023/01/02 01:28:33;;;;;;;10.07;4.30;;;;;;;;;;5064584;28;20185;-70
2023/01/02 01:31:09;;;;;;;9.40;4.90;;;;;;;;;;5063354;28;20594;-67
2023/01/02 01:33:37;;;;;;;12.77;5.20;;;;;;;;;;5065566;28;20258;-69
2023/01/02 01:36:03;;;;;;;11.83;4.30;;;;;;;;;;5065352;28;20217;-69
2023/01/02 01:38:29;;;;;;;11.13;4.80;;;;;;;;;;5065035;28;20178;-69
2023/01/02 01:40:55;;;;;;;10.13;4.90;;;;;;;;;;5065932;28;20181;-69
2023/01/02 01:43:35;;;;;;;8.50;4.70;;;;;;;;;;5064828;28;20254;-69
2023/01/02 01:46:01;;;;;;;9.90;4.90;;;;;;;;;;5066088;28;20178;-70
2023/01/02 01:48:27;;;;;;;15.67;5.73;;;;;;;;;;5070039;28;20251;-69
2023/01/02 01:50:53;;;;;;;9.87;5.13;;;;;;;;;;5071585;28;20207;-69
2023/01/02 01:53:20;;;;;;;11.10;4.93;;;;;;;;;;5073453;28;20206;-69
2023/01/02 01:55:57;;;;;;;13.23;5.50;;;;;;;;;;5075990;28;20174;-68
2023/01/02 01:58:25;;;;;;;9.37;5.40;;;;;;;;;;5076205;28;20173;-69
2023/01/02 02:00:51;;;;;;;14.23;5.90;;;;;;;;;;5076182;28;20162;-69
2023/01/02 02:03:19;;;;;;;15.63;6.33;;;;;;;;;;5073207;28;20190;-69
2023/01/02 02:05:46;;;;;;;14.93;6.40;;;;;;;;;;5066241;28;20174;-69
2023/01/02 02:08:25;;;;;;;15.57;8.23;;;;;;;;;;5063493;28;20178;-69
2023/01/02 02:10:52;;;;;;;18.90;10.50;;;;;;;;;;5065727;28;20224;-69
2023/01/02 02:13:18;;;;;;;22.30;10.83;;;;;;;;;;5063549;28;20269;-68
2023/01/02 02:15:50;;;;;;;24.30;10.97;;;;;;;;;;5064913;28;20258;-69
2023/01/02 02:18:19;;;;;;;20.47;10.87;;;;;;;;;;5063808;28;20178;-70
2023/01/02 02:20:53;;;;;;;19.77;9.77;;;;;;;;;;5064969;28;20187;-69
2023/01/02 02:23:27;;;;;;;17.07;10.30;;;;;;;;;;5064308;28;20166;-69
2023/01/02 02:26:12;;;;;;;21.90;9.97;;;;;;;;;;5063876;28;20178;-68
2023/01/02 02:28:44;;;;;;;17.47;8.80;;;;;;;;;;5063186;28;20558;-69
2023/01/02 02:31:12;;;;;;;16.10;6.63;;;;;;;;;;5065920;28;20218;-69
2023/01/02 02:33:57;;;;;;;18.60;6.37;;;;;;;;;;5065284;28;20174;-69
2023/01/02 02:36:30;;;;;;;17.27;5.97;;;;;;;;;;5065039;28;20186;-70
2023/01/02 02:39:10;;;;;;;12.63;6.30;;;;;;;;;;5053087;28;20182;-70
2023/01/02 02:41:39;;;;;;;12.30;5.57;;;;;;;;;;5054052;28;20197;-71
2023/01/02 02:44:23;;;;;;;16.57;6.93;;;;;;;;;;5057164;28;20185;-69
2023/01/02 02:47:13;;;;;;;17.23;6.23;;;;;;;;;;5056388;28;20174;-69
2023/01/02 02:49:39;;;;;;;15.30;5.83;;;;;;;;;;5058006;28;20191;-70
2023/01/02 02:52:05;;;;;;;10.30;5.83;;;;;;;;;;5056203;28;20249;-69
2023/01/02 02:54:35;;;;;;;13.87;6.40;;;;;;;;;;5058912;28;20225;-69
2023/01/02 02:57:02;;;;;;;15.63;6.17;;;;;;;;;;5058279;28;20194;-69
2023/01/02 02:59:29;;;;;;;10.10;5.13;;;;;;;;;;5056248;28;20175;-71
2023/01/02 03:01:54;;;;;;;16.10;6.07;;;;;;;;;;5057444;28;20225;-69
2023/01/02 03:04:21;;;;;;;8.60;5.40;;;;;;;;;;5057189;28;20548;-69
2023/01/02 03:06:54;;;;;;;12.33;5.67;;;;;;;;;;5055855;28;20197;-69
2023/01/02 03:09:33;;;;;;;12.50;5.20;;;;;;;;;;5055908;28;20269;-70
2023/01/02 03:12:04;;;;;;;12.67;5.27;;;;;;;;;;5057004;28;20206;-69
2023/01/02 03:14:32;;;;;;;13.20;5.07;;;;;;;;;;5057394;28;20171;-69
2023/01/02 03:17:03;;;;;;;14.43;5.67;;;;;;;;;;5055641;28;20634;-69
2023/01/02 03:19:42;;;;;;;16.43;6.00;;;;;;;;;;5057172;28;20572;-69
2023/01/02 03:22:10;;;;;;;11.60;5.70;;;;;;;;;;5055810;28;20570;-70
2023/01/02 03:24:37;;;;;;;7.83;4.43;;;;;;;;;;5055523;28;20281;-69
2023/01/02 03:27:04;;;;;;;11.47;4.80;;;;;;;;;;5055702;28;20186;-69
2023/01/02 03:29:33;;;;;;;11.13;4.57;;;;;;;;;;5055440;28;20277;-69
2023/01/02 03:32:01;;;;;;;10.80;5.37;;;;;;;;;;5055326;28;20241;-70
2023/01/02 03:34:28;;;;;;;10.23;5.00;;;;;;;;;;5056905;28;20676;-72
2023/01/02 03:36:57;;;;;;;18.63;5.23;;;;;;;;;;5056745;28;20250;-69
2023/01/02 03:39:26;;;;;;;9.40;4.70;;;;;;;;;;5056701;28;20209;-69
2023/01/02 03:41:55;;;;;;;16.00;5.40;;;;;;;;;;5056845;28;20203;-69
2023/01/02 03:44:23;;;;;;;13.23;4.83;;;;;;;;;;5056392;28;20183;-69
2023/01/02 03:46:54;;;;;;;10.00;4.57;;;;;;;;;;5058992;28;20181;-68
2023/01/02 03:49:30;;;;;;;15.37;5.63;;;;;;;;;;5056751;28;20209;-69
2023/01/02 03:51:56;;;;;;;9.27;4.47;;;;;;;;;;5056136;28;20214;-69
2023/01/02 03:54:22;;;;;;;7.93;4.13;;;;;;;;;;5055266;28;20179;-69
2023/01/02 03:57:00;;;;;;;11.60;5.33;;;;;;;;;;5057060;28;20179;-69
2023/01/02 03:59:44;;;;;;;10.67;5.77;;;;;;;;;;5055426;28;20629;-69
2023/01/02 04:02:16;;;;;;;15.23;5.67;;;;;;;;;;5056529;28;20198;-69
2023/01/02 04:04:51;;;;;;;11.70;5.73;;;;;;;;;;5054747;28;20183;-69
2023/01/02 04:07:30;;;;;;;16.10;5.03;;;;;;;;;;5056083;28;20239;-69
2023/01/02 04:09:56;;;;;;;12.97;5.60;;;;;;;;;;5079669;22;20222;-74
2023/01/02 04:12:24;;;;;;;10.63;5.13;;;;;;;;;;5042021;28;20214;-72
2023/01/02 04:14:52;;;;;;;15.27;4.97;;;;;;;;;;5041616;28;20232;-72
2023/01/02 04:17:19;;;;;;;10.57;5.17;;;;;;;;;;5059581;28;20178;-72
2023/01/02 04:19:58;;;;;;;10.40;5.23;;;;;;;;;;5040889;28;20186;-74
2023/01/02 04:22:27;;;;;;;12.83;5.20;;;;;;;;;;5058824;28;20268;-71
2023/01/02 04:24:55;;;;;;;17.03;5.20;;;;;;;;;;5058324;28;20178;-74
2023/01/02 04:27:31;;;;;;;11.90;5.00;;;;;;;;;;5058780;28;20236;-74
2023/01/02 04:29:57;;;;;;;8.93;5.23;;;;;;;;;;5059420;28;20209;-73
2023/01/02 04:32:27;;;;;;;7.70;4.60;;;;;;;;;;5057306;28;20210;-72
2023/01/02 04:34:53;;;;;;;8.37;4.30;;;;;;;;;;5059043;28;20175;-73
2023/01/02 04:37:46;;;;;;;10.77;5.03;;;;;;;;;;5057930;28;20170;-73
2023/01/02 04:40:29;;;;;;;9.57;4.33;;;;;;;;;;5055442;28;20235;-74
2023/01/02 04:42:55;;;;;;;8.70;5.17;;;;;;;;;;5058504;28;20257;-73
2023/01/02 04:45:21;;;;;;;11.27;4.83;;;;;;;;;;5057901;28;20220;-74
2023/01/02 04:47:48;;;;;;;12.13;4.83;;;;;;;;;;5066053;28;20166;-74
2023/01/02 04:50:14;;;;;;;9.70;4.10;;;;;;;;;;5073589;28;20210;-74
2023/01/02 04:52:40;;;;;;;7.93;4.40;;;;;;;;;;5072985;28;20206;-74
2023/01/02 04:55:07;;;;;;;11.07;4.13;;;;;;;;;;5071686;28;20265;-74
2023/01/02 04:57:33;;;;;;;13.50;5.00;;;;;;;;;;5072775;28;20167;-73
2023/01/02 04:59:59;;;;;;;8.40;4.97;;;;;;;;;;5073052;28;20207;-74
2023/01/02 05:02:25;;;;;;;10.90;4.20;;;;;;;;;;5070854;28;20653;-74
2023/01/02 05:04:51;;;;;;;10.37;4.50;;;;;;;;;;5057454;28;20193;-74
2023/01/02 05:07:18;;;;;;;7.90;4.27;;;;;;;;;;5056469;28;20194;-74
2023/01/02 05:09:44;;;;;;;16.00;5.20;;;;;;;;;;5057222;28;20574;-74
2023/01/02 05:12:10;;;;;;;11.10;4.43;;;;;;;;;;5057239;28;20194;-74
2023/01/02 05:14:35;;;;;;;12.30;5.27;;;;;;;;;;5058246;28;20201;-73
2023/01/02 05:17:01;;;;;;;8.70;4.03;;;;;;;;;;5057501;28;20534;-73
2023/01/02 05:19:27;;;;;;;8.50;4.03;;;;;;;;;;5058082;28;20170;-73
2023/01/02 05:24:45;;;;;;;11.10;4.40;;;;;;;;;;5042937;28;20189;-73
2023/01/02 05:27:11;;;;;;;6.67;4.10;;;;;;;;;;5056624;28;20182;-73
2023/01/02 05:29:37;;;;;;;9.73;4.30;;;;;;;;;;5058015;28;20182;-72
2023/01/02 05:32:03;;;;;;;10.97;3.87;;;;;;;;;;5056230;28;20263;-73
2023/01/02 05:34:29;;;;;;;8.70;3.97;;;;;;;;;;5058160;28;20238;-73
2023/01/02 05:36:55;;;;;;;6.67;3.83;;;;;;;;;;5056122;28;20652;-73
2023/01/02 05:39:21;;;;;;;11.60;4.03;;;;;;;;;;5057240;28;20650;-73
2023/01/02 05:41:47;;;;;;;8.90;4.50;;;;;;;;;;5056825;28;20202;-74
2023/01/02 05:44:13;;;;;;;12.07;4.60;;;;;;;;;;5057841;28;20246;-73
2023/01/02 05:46:39;;;;;;;9.47;4.23;;;;;;;;;;5057005;28;20182;-73
2023/01/02 05:49:06;;;;;;;12.27;4.40;;;;;;;;;;5058494;28;20182;-73
2023/01/02 05:51:32;;;;;;;10.47;4.80;;;;;;;;;;5056681;28;20206;-73
2023/01/02 05:53:58;;;;;;;10.53;3.93;;;;;;;;;;5055798;28;20231;-73
2023/01/02 05:56:25;;;;;;;11.13;4.00;;;;;;;;;;5057582;28;20249;-72
2023/01/02 05:58:52;;;;;;;9.33;4.10;;;;;;;;;;5058245;28;20182;-73
2023/01/02 06:01:19;;;;;;;10.03;4.10;;;;;;;;;;5057594;28;20544;-73
2023/01/02 06:03:46;;;;;;;9.00;4.20;;;;;;;;;;5056588;28;20186;-72
2023/01/02 06:06:12;;;;;;;9.37;4.03;;;;;;;;;;5057016;28;20182;-72
2023/01/02 06:08:38;;;;;;;7.50;3.97;;;;;;;;;;5057251;28;20269;-73
2023/01/02 06:11:05;;;;;;;8.13;3.73;;;;;;;;;;5056213;28;20222;-73
2023/01/02 06:13:31;;;;;;;6.90;4.17;;;;;;;;;;5057534;28;20194;-73
2023/01/02 06:15:58;;;;;;;9.03;4.47;;;;;;;;;;5056991;28;20185;-73
2023/01/02 06:18:24;;;;;;;10.67;3.97;;;;;;;;;;5056758;28;20185;-73
2023/01/02 06:20:50;;;;;;;9.87;4.60;;;;;;;;;;5056797;28;20196;-72
2023/01/02 06:23:16;;;;;;;11.60;4.30;;;;;;;;;;5056011;28;20269;-73
2023/01/02 06:25:42;;;;;;;8.30;4.10;;;;;;;;;;5056857;28;20205;-73
2023/01/02 06:28:08;;;;;;;9.43;3.70;;;;;;;;;;5057307;28;20548;-72
2023/01/02 06:30:34;;;;;;;7.13;3.60;;;;;;;;;;5057499;28;20743;-75
2023/01/02 06:33:00;;;;;;;6.70;3.90;;;;;;;;;;5057712;28;20210;-73
2023/01/02 06:35:26;;;;;;;8.27;4.10;;;;;;;;;;5056526;28;20171;-73
2023/01/02 06:37:52;;;;;;;6.63;3.60;;;;;;;;;;5055582;28;20178;-73
2023/01/02 06:40:18;;;;;;;13.70;4.17;;;;;;;;;;5057604;28;20689;-73
2023/01/02 06:42:44;;;;;;;7.90;3.77;;;;;;;;;;5057375;28;20260;-73
2023/01/02 06:45:11;;;;;;;8.60;3.63;;;;;;;;;;5056489;28;20210;-73
2023/01/02 06:47:37;;;;;;;6.27;3.80;;;;;;;;;;5056601;28;20178;-73
2023/01/02 06:50:03;;;;;;;9.67;4.17;;;;;;;;;;5056372;28;20272;-73
2023/01/02 06:52:29;;;;;;;9.97;4.83;;;;;;;;;;5056602;28;20206;-73
2023/01/02 06:54:55;;;;;;;11.10;4.13;;;;;;;;;;5055222;28;20233;-73
2023/01/02 06:57:21;;;;;;;8.87;4.60;;;;;;;;;;5056499;28;20178;-72
2023/01/02 06:59:47;;;;;;;10.27;4.40;;;;;;;;;;5056334;28;20228;-73
2023/01/02 07:02:13;;;;;;;6.73;3.80;;;;;;;;;;5056753;28;20189;-73
2023/01/02 07:04:39;;;;;;;10.23;4.63;;;;;;;;;;5055782;28;20178;-73
2023/01/02 07:07:07;;;;;;;9.83;4.30;;;;;;;;;;5055896;28;20208;-73
2023/01/02 07:09:33;;;;;;;12.23;4.50;;;;;;;;;;5055770;28;20178;-72
2023/01/02 07:11:59;;;;;;;8.77;4.20;;;;;;;;;;5055852;28;20264;-72
2023/01/02 07:14:25;;;;;;;11.30;4.80;;;;;;;;;;5054501;28;20556;-73
2023/01/02 07:16:51;;;;;;;6.33;3.83;;;;;;;;;;5055857;28;20258;-74
2023/01/02 07:19:17;;;;;;;10.87;3.70;;;;;;;;;;5055065;28;20185;-74
2023/01/02 07:21:43;;;;;;;7.33;4.20;;;;;;;;;;5057547;28;20225;-73
2023/01/02 07:24:15;;;;;;;7.63;3.57;;;;;;;;;;5057464;28;20182;-74
2023/01/02 07:26:41;;;;;;;9.10;3.90;;;;;;;;;;5054602;28;20186;-73
2023/01/02 07:29:07;;;;;;;11.40;4.27;;;;;;;;;;5058866;28;20205;-73
2023/01/02 07:31:34;;;;;;;7.47;4.00;;;;;;;;;;5061042;28;20206;-72
2023/01/02 07:34:00;;;;;;;9.37;3.97;;;;;;;;;;5060281;28;20177;-74
2023/01/02 07:36:26;;;;;;;14.03;4.23;;;;;;;;;;5059527;28;20175;-73
2023/01/02 07:38:53;;;;;;;6.17;3.77;;;;;;;;;;5059776;28;20175;-73
2023/01/02 07:41:20;;;;;;;5.37;3.67;;;;;;;;;;5058056;28;20198;-74
2023/01/02 07:43:47;;;;;;;8.17;4.00;;;;;;;;;;5059286;28;20585;-73
2023/01/02 07:46:14;;;;;;;5.93;3.80;;;;;;;;;;5058910;28;20186;-74
2023/01/02 07:48:40;;;;;;;6.70;4.17;;;;;;;;;;5059843;28;20205;-74
2023/01/02 07:51:06;;;;;;;10.03;3.77;;;;;;;;;;5059293;28;20559;-73
2023/01/02 07:53:32;;;;;;;8.50;3.77;;;;;;;;;;5058845;28;20178;-73
2023/01/02 07:56:00;;;;;;;6.67;3.70;;;;;;;;;;5059411;28;20246;-74
2023/01/02 07:58:26;;;;;;;7.40;4.37;;;;;;;;;;5058340;28;20197;-73
2023/01/02 08:00:53;;;;;;;10.07;4.00;;;;;;;;;;5059326;28;20244;-73
2023/01/02 08:03:19;;;;;;;11.70;3.90;;;;;;;;;;5058058;28;20174;-74
2023/01/02 08:05:45;;;;;;;7.87;3.67;;;;;;;;;;5060555;28;20622;-74
2023/01/02 08:08:11;;;;;;;5.83;3.67;;;;;;;;;;5060167;28;20198;-73
2023/01/02 08:10:37;;;;;;;8.13;3.73;;;;;;;;;;5059818;28;20692;-73
2023/01/02 08:13:04;;;;;;;7.10;4.40;;;;;;;;;;5059954;28;20174;-73
2023/01/02 08:15:30;;;;;;;7.73;3.83;;;;;;;;;;5058973;28;20175;-73
2023/01/02 08:17:56;;;;;;;5.83;3.87;;;;;;;;;;5060925;28;20217;-73
2023/01/02 08:20:22;;;;;;;6.87;3.57;;;;;;;;;;5061616;28;20206;-73
2023/01/02 08:22:48;;;;;;;7.13;3.20;;;;;;;;;;5061699;28;20205;-74
2023/01/02 08:25:14;;;;;;;6.73;4.13;;;;;;;;;;5059479;28;20182;-73
2023/01/02 08:27:41;;;;;;;6.17;3.83;;;;;;;;;;5059571;28;20174;-74
2023/01/02 08:30:07;;;;;;;7.23;3.93;;;;;;;;;;5059499;28;20199;-72
2023/01/02 08:32:37;;;;;;;7.23;3.77;;;;;;;;;;5058228;28;20202;-73
2023/01/02 08:35:07;;;;;;;6.93;4.13;;;;;;;;;;5058391;28;20178;-73
2023/01/02 08:37:33;;;;;;;6.27;3.67;;;;;;;;;;5058559;28;20273;-73
2023/01/02 08:39:59;;;;;;;6.03;3.10;;;;;;;;;;5057853;28;20251;-73
2023/01/02 08:42:25;;;;;;;6.17;3.43;;;;;;;;;;5058127;28;20193;-74
2023/01/02 08:44:52;;;;;;;5.00;2.80;;;;;;;;;;5059249;28;20182;-73
2023/01/02 08:47:18;;;;;;;3.50;2.43;;;;;;;;;;5059159;28;20228;-74
2023/01/02 08:49:44;;;;;;;5.53;2.87;;;;;;;;;;5060161;28;20182;-74
2023/01/02 08:52:10;;;;;;;2.87;2.10;;;;;;;;;;5057363;28;20628;-73
2023/01/02 08:54:36;;;;;;;2.20;1.87;;;;;;;;;;5058997;28;20175;-74
2023/01/02 08:57:02;;;;;;;3.10;1.73;;;;;;;;;;5057345;28;20557;-74
2023/01/02 08:59:28;;;;;;;3.37;2.37;;;;;;;;;;5058451;28;20518;-73
2023/01/02 09:01:54;;;;;;;2.87;2.00;;;;;;;;;;5058516;28;20282;-73
2023/01/02 09:04:20;;;;;;;4.53;2.13;;;;;;;;;;5059644;28;20565;-73
2023/01/02 09:06:47;;;;;;;2.97;2.30;;;;;;;;;;5058294;28;20649;-74
2023/01/02 09:09:14;;;;;;;2.30;2.10;;;;;;;;;;5057982;28;20611;-73
2023/01/02 09:11:49;;;;;;;2.37;2.13;;;;;;;;;;5057680;28;20238;-74
2023/01/02 09:14:15;;;;;;;2.50;1.97;;;;;;;;;;5058202;28;20155;-74
2023/01/02 09:16:41;;;;;;;2.70;2.17;;;;;;;;;;5057705;28;20549;-74
2023/01/02 09:19:07;;;;;;;3.70;2.80;;;;;;;;;;5057521;28;20185;-74
2023/01/02 09:21:33;;;;;;;3.13;2.40;;;;;;;;;;5058591;28;20198;-74
2023/01/02 09:23:59;;;;;;;3.17;2.47;;;;;;;;;;5056047;28;20193;-75
2023/01/02 09:26:25;;;;;;;4.87;2.57;;;;;;;;;;5055968;28;20646;-74
2023/01/02 09:28:51;;;;;;;3.90;2.37;;;;;;;;;;5054270;28;20186;-74
2023/01/02 09:31:17;;;;;;;3.40;3.10;;;;;;;;;;5055335;28;20205;-74
2023/01/02 09:33:45;;;;;;;3.00;2.70;;;;;;;;;;5055627;28;20178;-74
2023/01/02 09:36:12;;;;;;;4.83;2.80;;;;;;;;;;5055819;28;20181;-74
2023/01/02 09:38:38;;;;;;;3.50;3.20;;;;;;;;;;5054576;28;20266;-75
2023/01/02 09:41:13;;;;;;;4.87;3.40;;;;;;;;;;5055336;28;20669;-74
2023/01/02 09:43:42;;;;;;;3.83;3.43;;;;;;;;;;5053775;28;20193;-75
2023/01/02 09:46:13;;;;;;;4.47;4.07;;;;;;;;;;5054364;28;20182;-74
2023/01/02 09:48:39;;;;;;;5.50;4.30;;;;;;;;;;5055914;28;20166;-74
2023/01/02 09:51:05;;;;;;;5.10;4.60;;;;;;;;;;5053302;28;20271;-74
2023/01/02 09:53:34;;;;;;;5.33;4.70;;;;;;;;;;5053789;28;20277;-74
2023/01/02 09:56:06;;;;;;;5.40;4.93;;;;;;;;;;5054564;28;20220;-74
2023/01/02 09:58:32;;;;;;;5.70;5.10;;;;;;;;;;5054014;28;20185;-74
2023/01/02 10:00:59;;;;;;;5.53;5.03;;;;;;;;;;5054947;28;20195;-74
2023/01/02 10:03:25;;;;;;;6.43;5.57;;;;;;;;;;5054001;28;20186;-73
2023/01/02 10:05:51;;;;;;;5.70;5.10;;;;;;;;;;5055934;28;20599;-74
2023/01/02 10:08:26;;;;;;;5.33;4.83;;;;;;;;;;5054919;28;20175;-74
2023/01/02 10:10:57;;;;;;;6.10;5.50;;;;;;;;;;5054734;28;20275;-74
2023/01/02 10:13:32;;;;;;;6.93;6.33;;;;;;;;;;5055271;28;20224;-74
2023/01/02 10:15:59;;;;;;;7.20;6.60;;;;;;;;;;5055203;28;20174;-74
2023/01/02 10:18:35;;;;;;;7.63;6.93;;;;;;;;;;5054200;28;20187;-75
2023/01/02 10:21:04;;;;;;;7.60;6.90;;;;;;;;;;5080852;22;20254;-72
2023/01/02 10:23:35;;;;;;;9.03;8.10;;;;;;;;;;5037024;28;20170;-73
2023/01/02 10:26:13;;;;;;;9.83;8.83;;;;;;;;;;5037167;28;20212;-71
2023/01/02 10:29:08;;;;;;;10.80;9.90;;;;;;;;;;5036844;28;20170;-70
2023/01/02 10:31:37;;;;;;;12.10;11.00;;;;;;;;;;5035409;28;20242;-70
2023/01/02 10:34:05;;;;;;;13.63;12.40;;;;;;;;;;5054713;28;20175;-70
2023/01/02 10:36:41;;;;;;;14.70;13.27;;;;;;;;;;5054801;28;20231;-72
2023/01/02 10:39:18;;;;;;;15.10;13.60;;;;;;;;;;5053160;28;20239;-72
2023/01/02 10:41:49;;;;;;;12.17;10.97;;;;;;;;;;5055229;28;20209;-69
2023/01/02 10:44:15;;;;;;;11.57;10.57;;;;;;;;;;5054732;28;20663;-71
2023/01/02 10:46:41;;;;;;;11.63;10.63;;;;;;;;;;5053600;28;20213;-71
2023/01/02 10:49:08;;;;;;;12.33;11.13;;;;;;;;;;5054592;28;20182;-69
2023/01/02 10:51:36;;;;;;;12.33;11.23;;;;;;;;;;5053507;28;20256;-69
2023/01/02 10:54:06;;;;;;;12.47;11.37;;;;;;;;;;5054381;28;20202;-69
2023/01/02 10:56:34;;;;;;;13.33;12.17;;;;;;;;;;5052763;28;20178;-67
2023/01/02 10:59:00;;;;;;;13.83;12.63;;;;;;;;;;5051612;28;20197;-68
2023/01/02 11:01:26;;;;;;;13.93;12.57;;;;;;;;;;5051609;28;20686;-65
2023/01/02 11:03:56;;;;;;;14.13;12.67;;;;;;;;;;5052857;28;20723;-66
2023/01/02 11:06:26;;;;;;;13.57;12.33;;;;;;;;;;5055548;28;20269;-66
2023/01/02 11:08:57;;;;;;;12.87;11.63;;;;;;;;;;5055535;28;20208;-68
2023/01/02 11:11:23;;;;;;;14.57;13.17;;;;;;;;;;5057447;28;20256;-70
2023/01/02 11:13:50;;;;;;;13.37;12.27;;;;;;;;;;5059097;28;20190;-70
2023/01/02 11:16:18;;;;;;;16.53;14.27;;;;;;;;;;5060571;28;20171;-70
2023/01/02 11:18:51;;;;;;;12.20;11.20;;;;;;;;;;5059983;28;20175;-70
2023/01/02 11:21:28;;;;;;;12.77;11.57;;;;;;;;;;5055746;28;20351;-69
2023/01/02 11:24:15;;;;;;;11.40;10.40;;;;;;;;;;5056769;28;20190;-70
2023/01/02 11:26:43;;;;;;;11.20;10.30;;;;;;;;;;5055588;28;20174;-70
2023/01/02 11:29:12;;;;;;;11.63;10.53;;;;;;;;;;5056395;28;20271;-68
2023/01/02 11:31:42;;;;;;;11.50;10.13;;;;;;;;;;5056105;28;20207;-71
2023/01/02 11:34:17;;;;;;;11.60;10.60;;;;;;;;;;5056431;28;20290;-70
2023/01/02 11:36:43;;;;;;;11.43;10.40;;;;;;;;;;5055038;28;20261;-70
2023/01/02 11:39:23;;;;;;;11.60;10.53;;;;;;;;;;5054930;28;20187;-69
2023/01/02 11:44:48;;;;;;;11.17;10.10;;;;;;;;;;5056468;28;20166;-72
2023/01/02 11:47:15;;;;;;;11.43;10.43;;;;;;;;;;5056319;28;20254;-68
2023/01/02 11:49:42;;;;;;;10.10;9.20;;;;;;;;;;5055001;28;20186;-70
2023/01/02 11:52:10;;;;;;;10.30;9.30;;;;;;;;;;5054590;28;20218;-70
2023/01/02 11:54:49;;;;;;;10.50;9.57;;;;;;;;;;5054726;28;20273;-69
2023/01/02 11:57:34;;;;;;;10.30;9.27;;;;;;;;;;5056596;28;20174;-70
2023/01/02 12:00:01;;;;;;;11.00;9.80;;;;;;;;;;5056110;28;20175;-71
2023/01/02 12:02:34;;;;;;;10.57;9.47;;;;;;;;;;5055852;28;20279;-70
2023/01/02 12:05:01;;;;;;;10.90;9.80;;;;;;;;;;5055965;28;20181;-71
2023/01/02 12:07:27;;;;;;;10.70;9.60;;;;;;;;;;5054510;28;20185;-71
2023/01/02 12:10:02;;;;;;;10.80;9.73;;;;;;;;;;5055890;28;20232;-71
2023/01/02 12:12:46;;;;;;;11.93;9.60;;;;;;;;;;5055748;28;20251;-71
2023/01/02 12:15:31;;;;;;;10.93;9.77;;;;;;;;;;5055334;28;20268;-70
2023/01/02 12:18:15;;;;;;;10.87;9.67;;;;;;;;;;5055468;28;20202;-70
2023/01/02 12:21:00;;;;;;;10.10;9.10;;;;;;;;;;5055460;28;20206;-70
2023/01/02 12:23:41;;;;;;;10.60;9.60;;;;;;;;;;5055412;28;20213;-71
2023/01/02 12:26:10;;;;;;;11.50;10.40;;;;;;;;;;5055529;28;20181;-71
2023/01/02 12:28:48;;;;;;;10.70;9.70;;;;;;;;;;5055066;28;20181;-71
2023/01/02 12:31:17;;;;;;;10.47;9.47;;;;;;;;;;5053749;28;20236;-70
2023/01/02 12:34:06;;;;;;;11.17;9.80;;;;;;;;;;5055223;28;20190;-71
2023/01/02 12:36:43;;;;;;;12.23;11.03;;;;;;;;;;5055146;28;20151;-70
2023/01/02 12:39:31;;;;;;;11.90;10.70;;;;;;;;;;5055249;28;20170;-71
2023/01/02 12:42:07;;;;;;;11.10;10.00;;;;;;;;;;5053813;28;20206;-71
2023/01/02 12:44:33;;;;;;;11.20;10.10;;;;;;;;;;5054112;28;20178;-73
2023/01/02 12:47:15;;;;;;;12.33;11.00;;;;;;;;;;5053796;28;20179;-71
2023/01/02 12:49:44;;;;;;;11.73;10.53;;;;;;;;;;5055157;28;20178;-71
2023/01/02 12:52:09;;;;;;;12.77;11.57;;;;;;;;;;5054770;28;20605;-71
2023/01/02 12:54:41;;;;;;;11.30;10.13;;;;;;;;;;5055102;28;20174;-71
2023/01/02 12:57:19;;;;;;;14.53;12.30;;;;;;;;;;5055253;28;20185;-72
2023/01/02 13:00:05;;;;;;;12.23;11.03;;;;;;;;;;5054840;28;20175;-71
2023/01/02 13:02:37;;;;;;;12.47;11.27;;;;;;;;;;5053524;28;20281;-71
2023/01/02 13:05:07;;;;;;;12.73;11.47;;;;;;;;;;5054715;28;20185;-71
2023/01/02 13:07:46;;;;;;;12.97;11.60;;;;;;;;;;5054715;28;20265;-72
2023/01/02 13:10:15;;;;;;;13.40;11.47;;;;;;;;;;5053470;28;20181;-72
2023/01/02 13:12:42;;;;;;;12.13;10.90;;;;;;;;;;5055012;28;20209;-72
2023/01/02 13:15:14;;;;;;;12.37;10.97;;;;;;;;;;5055170;28;20182;-73
2023/01/02 13:17:50;;;;;;;14.27;11.27;;;;;;;;;;5053393;28;20171;-72
2023/01/02 13:20:32;;;;;;;13.50;11.80;;;;;;;;;;5054471;28;20181;-68
2023/01/02 13:23:17;;;;;;;13.57;11.63;;;;;;;;;;5054889;28;20171;-68
2023/01/02 13:25:47;;;;;;;12.60;11.30;;;;;;;;;;5054101;28;20178;-69
2023/01/02 13:28:14;;;;;;;12.97;11.30;;;;;;;;;;5054054;28;20305;-69
2023/01/02 13:30:44;;;;;;;12.73;11.23;;;;;;;;;;5054103;28;20202;-69
2023/01/02 13:33:28;;;;;;;13.60;12.07;;;;;;;;;;5054279;28;20742;-70
2023/01/02 13:35:55;;;;;;;14.60;11.70;;;;;;;;;;5052751;28;20179;-68
2023/01/02 13:38:22;;;;;;;15.30;12.73;;;;;;;;;;5054159;28;20597;-69
2023/01/02 13:40:53;;;;;;;10.27;9.10;;;;;;;;;;5053993;28;20199;-69
2023/01/02 13:43:22;;;;;;;11.23;9.63;;;;;;;;;;5053896;28;20174;-68
2023/01/02 13:45:51;;;;;;;14.07;12.17;;;;;;;;;;5054102;28;20190;-69
2023/01/02 13:48:20;;;;;;;10.17;9.17;;;;;;;;;;5052408;28;20269;-70
2023/01/02 13:50:46;;;;;;;10.73;9.63;;;;;;;;;;5053970;28;20283;-70
2023/01/02 13:53:11;;;;;;;11.63;8.90;;;;;;;;;;5053570;28;20236;-69
2023/01/02 13:55:40;;;;;;;10.83;8.40;;;;;;;;;;5053660;28;20170;-69
2023/01/02 13:58:19;;;;;;;9.20;8.23;;;;;;;;;;5053676;28;20175;-70
2023/01/02 14:00:50;;;;;;;8.90;8.00;;;;;;;;;;5053836;28;20260;-69
2023/01/02 14:03:17;;;;;;;8.40;7.43;;;;;;;;;;5052246;28;20183;-70
2023/01/02 14:05:58;;;;;;;9.30;7.57;;;;;;;;;;5053792;28;20218;-69
2023/01/02 14:08:25;;;;;;;8.23;6.77;;;;;;;;;;5053416;28;20225;-67
2023/01/02 14:10:52;;;;;;;10.20;7.50;;;;;;;;;;5053560;28;20272;-69
2023/01/02 14:13:21;;;;;;;10.03;7.60;;;;;;;;;;5053563;28;20185;-69
2023/01/02 14:16:06;;;;;;;9.53;7.23;;;;;;;;;;5053365;28;20175;-69
2023/01/02 14:18:32;;;;;;;8.80;7.70;;;;;;;;;;5053613;28;20163;-68
2023/01/02 14:20:58;;;;;;;7.80;6.90;;;;;;;;;;5051810;28;20636;-66
2023/01/02 14:23:26;;;;;;;9.07;7.00;;;;;;;;;;5053456;28;20549;-71
2023/01/02 14:25:52;;;;;;;9.93;6.53;;;;;;;;;;5052214;28;20178;-68
2023/01/02 14:28:26;;;;;;;9.37;6.20;;;;;;;;;;5053083;28;20182;-68
2023/01/02 14:30:53;;;;;;;7.10;5.80;;;;;;;;;;5051849;28;20658;-69
2023/01/02 14:33:32;;;;;;;7.00;5.60;;;;;;;;;;5053476;28;20174;-70
2023/01/02 14:36:02;;;;;;;7.77;5.73;;;;;;;;;;5053415;28;20597;-70
2023/01/02 14:38:30;;;;;;;7.10;5.43;;;;;;;;;;5054196;28;20181;-71
2023/01/02 14:43:28;;;;;;;8.13;5.00;;;;;;;;;;5057473;28;20198;-69
2023/01/02 14:43:42;;;;;;;6.47;5.10;;;;;;;;;;5057042;28;20182;-70
2023/01/02 14:46:12;;;;;;;8.23;5.43;;;;;;;;;;5057451;28;20170;-69
2023/01/02 14:48:41;;;;;;;8.20;5.50;;;;;;;;;;5057167;28;20174;-69
2023/01/02 14:51:09;;;;;;;8.57;5.20;;;;;;;;;;5057040;28;20194;-70